sensor_id;sensor_type;location;lat;lon;timestamp;pressure;altitude;pressure_sealevel;temperature;humidity
34482;BME280;20720;48.886;9.388;2022-10-23T00:01:41;98381.41;;;13.54;100.00
34482;BME280;20720;48.886;9.388;2022-10-23T00:04:10;98384.69;;;13.49;100.00
34482;BME280;20720;48.886;9.388;2022-10-23T00:06:36;98375.31;;;13.53;100.00
34482;BME280;20720;48.886;9.388;2022-10-23T00:09:04;98375.75;;;13.50;100.00
34482;BME280;20720;48.886;9.388;2022-10-23T00:11:30;98364.38;;;13.50;100.00
34482;BME280;20720;48.886;9.388;2022-10-23T00:13:58;98368.03;;;13.49;100.00
34482;BME280;20720;48.886;9.388;2022-10-23T00:16:24;98364.06;;;13.40;100.00
34482;BME280;20720;48.886;9.388;2022-10-23T00:18:49;98362.41;;;13.45;100.00
34482;BME280;20720;48.886;9.388;2022-10-23T00:21:15;98347.09;;;13.54;100.00
34482;BME280;20720;48.886;9.388;2022-10-23T00:23:41;98341.81;;;13.29;100.00
34482;BME280;20720;48.886;9.388;2022-10-23T00:26:08;98326.78;;;13.54;100.00
34482;BME280;20720;48.886;9.388;2022-10-23T00:28:35;98333.38;;;13.63;100.00
34482;BME280;20720;48.886;9.388;2022-10-23T00:31:02;98334.25;;;13.57;100.00
34482;BME280;20720;48.886;9.388;2022-10-23T00:33:27;98326.72;;;13.79;100.00
34482;BME280;20720;48.886;9.388;2022-10-23T00:35:52;98335.81;;;14.01;100.00
34482;BME280;20720;48.886;9.388;2022-10-23T00:38:18;98331.56;;;14.18;100.00
34482;BME280;20720;48.886;9.388;2022-10-23T00:40:43;98351.91;;;14.36;100.00
34482;BME280;20720;48.886;9.388;2022-10-23T00:43:23;98351.63;;;14.44;100.00
34482;BME280;20720;48.886;9.388;2022-10-23T00:45:49;98353.22;;;14.45;100.00
34482;BME280;20720;48.886;9.388;2022-10-23T00:48:15;98346.19;;;14.21;100.00
34482;BME280;20720;48.886;9.388;2022-10-23T00:50:41;98346.34;;;14.07;100.00
34482;BME280;20720;48.886;9.388;2022-10-23T00:53:08;98353.50;;;13.82;100.00
34482;BME280;20720;48.886;9.388;2022-10-23T00:55:34;98354.09;;;13.66;100.00
34482;BME280;20720;48.886;9.388;2022-10-23T00:58:00;98352.59;;;13.52;100.00
34482;BME280;20720;48.886;9.388;2022-10-23T01:00:28;98364.81;;;13.47;100.00
34482;BME280;20720;48.886;9.388;2022-10-23T01:02:55;98351.94;;;13.07;100.00
34482;BME280;20720;48.886;9.388;2022-10-23T01:05:26;98340.91;;;13.42;100.00
34482;BME280;20720;48.886;9.388;2022-10-23T01:08:05;98327.38;;;13.56;100.00
34482;BME280;20720;48.886;9.388;2022-10-23T01:10:44;98324.44;;;14.00;100.00
34482;BME280;20720;48.886;9.388;2022-10-23T01:13:14;98329.44;;;14.08;100.00
34482;BME280;20720;48.886;9.388;2022-10-23T01:15:48;98333.63;;;13.80;100.00
34482;BME280;20720;48.886;9.388;2022-10-23T01:18:25;98328.13;;;13.99;100.00
34482;BME280;20720;48.886;9.388;2022-10-23T01:20:59;98325.34;;;14.12;100.00
34482;BME280;20720;48.886;9.388;2022-10-23T01:29:13;98324.31;;;13.77;100.00
34482;BME280;20720;48.886;9.388;2022-10-23T01:31:58;98326.72;;;13.79;100.00
34482;BME280;20720;48.886;9.388;2022-10-23T01:34:47;98316.03;;;13.92;100.00
34482;BME280;20720;48.886;9.388;2022-10-23T01:37:21;98310.72;;;14.10;100.00
34482;BME280;20720;48.886;9.388;2022-10-23T01:39:51;98311.81;;;14.02;100.00
34482;BME280;20720;48.886;9.388;2022-10-23T01:42:23;98309.72;;;14.11;100.00
34482;BME280;20720;48.886;9.388;2022-10-23T01:45:02;98303.91;;;14.02;100.00
34482;BME280;20720;48.886;9.388;2022-10-23T01:47:32;98313.16;;;13.93;100.00
34482;BME280;20720;48.886;9.388;2022-10-23T01:50:00;98310.13;;;14.08;100.00
34482;BME280;20720;48.886;9.388;2022-10-23T01:52:26;98300.53;;;13.95;100.00
34482;BME280;20720;48.886;9.388;2022-10-23T01:54:54;98306.28;;;13.92;100.00
34482;BME280;20720;48.886;9.388;2022-10-23T01:57:21;98303.91;;;13.84;100.00
34482;BME280;20720;48.886;9.388;2022-10-23T01:59:56;98292.47;;;13.54;100.00
34482;BME280;20720;48.886;9.388;2022-10-23T02:02:25;98301.66;;;13.27;100.00
34482;BME280;20720;48.886;9.388;2022-10-23T02:04:59;98306.28;;;13.07;100.00
34482;BME280;20720;48.886;9.388;2022-10-23T02:07:26;98295.03;;;13.18;100.00
34482;BME280;20720;48.886;9.388;2022-10-23T02:09:51;98297.22;;;13.21;100.00
34482;BME280;20720;48.886;9.388;2022-10-23T02:12:33;98295.50;;;13.33;100.00
34482;BME280;20720;48.886;9.388;2022-10-23T02:17:50;98293.13;;;13.25;100.00
34482;BME280;20720;48.886;9.388;2022-10-23T02:20:26;98286.66;;;13.21;100.00
34482;BME280;20720;48.886;9.388;2022-10-23T02:23:06;98284.47;;;13.18;100.00
34482;BME280;20720;48.886;9.388;2022-10-23T02:25:43;98285.81;;;13.27;100.00
34482;BME280;20720;48.886;9.388;2022-10-23T02:28:12;98278.59;;;13.16;100.00
34482;BME280;20720;48.886;9.388;2022-10-23T02:30:40;98279.16;;;13.25;100.00
34482;BME280;20720;48.886;9.388;2022-10-23T02:33:10;98280.03;;;13.37;100.00
34482;BME280;20720;48.886;9.388;2022-10-23T02:35:36;98270.78;;;13.28;100.00
34482;BME280;20720;48.886;9.388;2022-10-23T02:38:02;98268.31;;;13.33;100.00
34482;BME280;20720;48.886;9.388;2022-10-23T02:40:40;98270.81;;;13.46;100.00
34482;BME280;20720;48.886;9.388;2022-10-23T02:43:17;98267.53;;;13.68;100.00
34482;BME280;20720;48.886;9.388;2022-10-23T02:45:58;98265.19;;;13.78;100.00
34482;BME280;20720;48.886;9.388;2022-10-23T02:48:38;98266.88;;;13.91;100.00
34482;BME280;20720;48.886;9.388;2022-10-23T02:51:25;98261.50;;;13.97;100.00
34482;BME280;20720;48.886;9.388;2022-10-23T02:54:06;98256.34;;;14.02;100.00
34482;BME280;20720;48.886;9.388;2022-10-23T02:56:43;98253.97;;;13.83;100.00
34482;BME280;20720;48.886;9.388;2022-10-23T02:59:15;98263.56;;;13.59;100.00
34482;BME280;20720;48.886;9.388;2022-10-23T03:04:10;98256.97;;;13.68;100.00
34482;BME280;20720;48.886;9.388;2022-10-23T03:06:36;98251.56;;;13.45;100.00
34482;BME280;20720;48.886;9.388;2022-10-23T03:09:07;98250.78;;;13.38;100.00
34482;BME280;20720;48.886;9.388;2022-10-23T03:11:32;98254.44;;;13.19;100.00
34482;BME280;20720;48.886;9.388;2022-10-23T03:13:58;98245.97;;;12.86;100.00
34482;BME280;20720;48.886;9.388;2022-10-23T03:16:23;98250.00;;;12.64;100.00
34482;BME280;20720;48.886;9.388;2022-10-23T03:18:49;98247.03;;;12.54;100.00
34482;BME280;20720;48.886;9.388;2022-10-23T03:21:14;98243.28;;;12.68;100.00
34482;BME280;20720;48.886;9.388;2022-10-23T03:23:39;98239.88;;;12.85;100.00
34482;BME280;20720;48.886;9.388;2022-10-23T03:26:04;98243.81;;;13.01;100.00
34482;BME280;20720;48.886;9.388;2022-10-23T03:28:30;98237.00;;;13.18;100.00
34482;BME280;20720;48.886;9.388;2022-10-23T03:30:55;98238.94;;;13.47;100.00
34482;BME280;20720;48.886;9.388;2022-10-23T03:33:20;98229.69;;;13.74;100.00
34482;BME280;20720;48.886;9.388;2022-10-23T03:35:47;98229.09;;;13.90;100.00
34482;BME280;20720;48.886;9.388;2022-10-23T03:38:13;98229.91;;;13.91;100.00
34482;BME280;20720;48.886;9.388;2022-10-23T03:40:38;98227.47;;;13.89;100.00
34482;BME280;20720;48.886;9.388;2022-10-23T03:43:03;98224.97;;;13.94;100.00
34482;BME280;20720;48.886;9.388;2022-10-23T03:45:28;98234.63;;;14.00;100.00
34482;BME280;20720;48.886;9.388;2022-10-23T03:47:55;98244.19;;;13.29;100.00
34482;BME280;20720;48.886;9.388;2022-10-23T03:50:20;98242.41;;;12.98;100.00
34482;BME280;20720;48.886;9.388;2022-10-23T03:52:45;98241.91;;;12.59;100.00
34482;BME280;20720;48.886;9.388;2022-10-23T03:55:11;98232.44;;;12.76;100.00
34482;BME280;20720;48.886;9.388;2022-10-23T03:57:37;98242.50;;;12.61;100.00
34482;BME280;20720;48.886;9.388;2022-10-23T04:00:04;98237.00;;;12.38;100.00
34482;BME280;20720;48.886;9.388;2022-10-23T04:02:29;98232.06;;;12.16;100.00
34482;BME280;20720;48.886;9.388;2022-10-23T04:04:55;98223.94;;;12.18;100.00
34482;BME280;20720;48.886;9.388;2022-10-23T04:07:20;98220.47;;;12.24;100.00
34482;BME280;20720;48.886;9.388;2022-10-23T04:09:45;98221.94;;;12.13;100.00
34482;BME280;20720;48.886;9.388;2022-10-23T04:12:10;98225.47;;;12.32;100.00
34482;BME280;20720;48.886;9.388;2022-10-23T04:14:36;98224.69;;;12.32;100.00
34482;BME280;20720;48.886;9.388;2022-10-23T04:17:01;98235.03;;;12.26;100.00
34482;BME280;20720;48.886;9.388;2022-10-23T04:19:26;98230.63;;;12.20;100.00
34482;BME280;20720;48.886;9.388;2022-10-23T04:21:51;98235.22;;;12.32;100.00
34482;BME280;20720;48.886;9.388;2022-10-23T04:24:17;98234.06;;;12.52;100.00
34482;BME280;20720;48.886;9.388;2022-10-23T04:26:42;98238.84;;;12.30;100.00
34482;BME280;20720;48.886;9.388;2022-10-23T04:29:07;98235.44;;;12.30;100.00
34482;BME280;20720;48.886;9.388;2022-10-23T04:31:33;98233.59;;;12.30;100.00
34482;BME280;20720;48.886;9.388;2022-10-23T04:33:58;98247.19;;;12.27;100.00
34482;BME280;20720;48.886;9.388;2022-10-23T04:36:23;98237.41;;;12.35;100.00
34482;BME280;20720;48.886;9.388;2022-10-23T04:38:48;98243.72;;;12.34;100.00
34482;BME280;20720;48.886;9.388;2022-10-23T04:41:14;98246.69;;;12.06;100.00
34482;BME280;20720;48.886;9.388;2022-10-23T04:43:39;98238.31;;;12.22;100.00
34482;BME280;20720;48.886;9.388;2022-10-23T04:46:04;98229.44;;;12.16;100.00
34482;BME280;20720;48.886;9.388;2022-10-23T04:48:30;98237.28;;;12.23;100.00
34482;BME280;20720;48.886;9.388;2022-10-23T04:51:00;98229.81;;;12.20;100.00
34482;BME280;20720;48.886;9.388;2022-10-23T04:53:26;98232.16;;;12.35;100.00
34482;BME280;20720;48.886;9.388;2022-10-23T04:55:53;98237.34;;;12.16;100.00
34482;BME280;20720;48.886;9.388;2022-10-23T04:58:18;98237.56;;;12.40;100.00
34482;BME280;20720;48.886;9.388;2022-10-23T05:00:44;98240.13;;;12.21;100.00
34482;BME280;20720;48.886;9.388;2022-10-23T05:03:10;98241.94;;;12.27;100.00
34482;BME280;20720;48.886;9.388;2022-10-23T05:05:35;98229.50;;;12.03;100.00
34482;BME280;20720;48.886;9.388;2022-10-23T05:08:01;98236.59;;;11.96;100.00
34482;BME280;20720;48.886;9.388;2022-10-23T05:10:26;98238.63;;;12.32;100.00
34482;BME280;20720;48.886;9.388;2022-10-23T05:12:51;98235.47;;;12.17;100.00
34482;BME280;20720;48.886;9.388;2022-10-23T05:15:16;98224.34;;;11.77;100.00
34482;BME280;20720;48.886;9.388;2022-10-23T05:17:44;98219.75;;;12.10;100.00
34482;BME280;20720;48.886;9.388;2022-10-23T05:20:15;98227.47;;;12.05;100.00
34482;BME280;20720;48.886;9.388;2022-10-23T05:22:43;98215.75;;;12.01;100.00
34482;BME280;20720;48.886;9.388;2022-10-23T05:25:09;98217.63;;;12.25;100.00
34482;BME280;20720;48.886;9.388;2022-10-23T05:27:35;98220.31;;;12.44;100.00
34482;BME280;20720;48.886;9.388;2022-10-23T05:30:00;98232.16;;;12.35;100.00
34482;BME280;20720;48.886;9.388;2022-10-23T05:32:28;98227.19;;;12.20;100.00
34482;BME280;20720;48.886;9.388;2022-10-23T05:34:55;98225.38;;;12.14;100.00
34482;BME280;20720;48.886;9.388;2022-10-23T05:37:21;98217.97;;;12.36;100.00
34482;BME280;20720;48.886;9.388;2022-10-23T05:39:46;98217.97;;;12.36;100.00
34482;BME280;20720;48.886;9.388;2022-10-23T05:42:12;98211.44;;;12.38;100.00
34482;BME280;20720;48.886;9.388;2022-10-23T05:44:37;98215.72;;;12.39;100.00
34482;BME280;20720;48.886;9.388;2022-10-23T05:47:03;98221.22;;;12.31;100.00
34482;BME280;20720;48.886;9.388;2022-10-23T05:49:28;98209.38;;;12.47;100.00
34482;BME280;20720;48.886;9.388;2022-10-23T05:51:53;98209.47;;;12.34;100.00
34482;BME280;20720;48.886;9.388;2022-10-23T05:54:18;98212.25;;;12.07;100.00
34482;BME280;20720;48.886;9.388;2022-10-23T05:56:44;98205.88;;;12.21;100.00
34482;BME280;20720;48.886;9.388;2022-10-23T05:59:09;98193.53;;;12.22;100.00
34482;BME280;20720;48.886;9.388;2022-10-23T06:01:35;98195.59;;;11.82;100.00
34482;BME280;20720;48.886;9.388;2022-10-23T06:04:02;98184.47;;;11.80;100.00
34482;BME280;20720;48.886;9.388;2022-10-23T06:06:27;98187.69;;;12.13;100.00
34482;BME280;20720;48.886;9.388;2022-10-23T06:08:53;98195.72;;;12.25;100.00
34482;BME280;20720;48.886;9.388;2022-10-23T06:11:18;98193.06;;;12.32;100.00
34482;BME280;20720;48.886;9.388;2022-10-23T06:13:44;98180.38;;;12.22;100.00
34482;BME280;20720;48.886;9.388;2022-10-23T06:16:17;98183.22;;;12.20;100.00
34482;BME280;20720;48.886;9.388;2022-10-23T06:18:43;98190.28;;;12.51;100.00
34482;BME280;20720;48.886;9.388;2022-10-23T06:21:10;98191.41;;;12.37;100.00
34482;BME280;20720;48.886;9.388;2022-10-23T06:23:36;98188.78;;;12.37;100.00
34482;BME280;20720;48.886;9.388;2022-10-23T06:26:03;98185.81;;;12.52;100.00
34482;BME280;20720;48.886;9.388;2022-10-23T06:28:28;98188.94;;;12.67;100.00
34482;BME280;20720;48.886;9.388;2022-10-23T06:30:54;98181.88;;;12.61;100.00
34482;BME280;20720;48.886;9.388;2022-10-23T06:33:19;98183.78;;;12.78;100.00
34482;BME280;20720;48.886;9.388;2022-10-23T06:35:45;98192.69;;;13.02;100.00
34482;BME280;20720;48.886;9.388;2022-10-23T06:38:10;98185.28;;;13.17;100.00
34482;BME280;20720;48.886;9.388;2022-10-23T06:40:36;98188.06;;;13.22;100.00
34482;BME280;20720;48.886;9.388;2022-10-23T06:43:03;98189.22;;;13.26;100.00
34482;BME280;20720;48.886;9.388;2022-10-23T06:45:29;98191.28;;;13.24;100.00
34482;BME280;20720;48.886;9.388;2022-10-23T06:47:56;98176.53;;;13.35;100.00
34482;BME280;20720;48.886;9.388;2022-10-23T06:50:21;98186.81;;;13.25;100.00
34482;BME280;20720;48.886;9.388;2022-10-23T06:52:47;98184.81;;;13.56;100.00
34482;BME280;20720;48.886;9.388;2022-10-23T06:55:12;98183.59;;;13.59;100.00
34482;BME280;20720;48.886;9.388;2022-10-23T06:57:37;98188.25;;;13.75;100.00
34482;BME280;20720;48.886;9.388;2022-10-23T07:00:03;98192.28;;;13.77;100.00
34482;BME280;20720;48.886;9.388;2022-10-23T07:02:29;98197.72;;;13.28;100.00
34482;BME280;20720;48.886;9.388;2022-10-23T07:04:54;98185.84;;;13.37;100.00
34482;BME280;20720;48.886;9.388;2022-10-23T07:07:19;98188.00;;;13.94;100.00
34482;BME280;20720;48.886;9.388;2022-10-23T07:09:45;98192.38;;;14.00;100.00
34482;BME280;20720;48.886;9.388;2022-10-23T07:12:10;98183.00;;;14.16;100.00
34482;BME280;20720;48.886;9.388;2022-10-23T07:14:35;98183.34;;;14.38;100.00
34482;BME280;20720;48.886;9.388;2022-10-23T07:17:00;98183.34;;;14.38;100.00
34482;BME280;20720;48.886;9.388;2022-10-23T07:19:26;98187.25;;;14.47;100.00
34482;BME280;20720;48.886;9.388;2022-10-23T07:21:51;98179.81;;;14.78;100.00
34482;BME280;20720;48.886;9.388;2022-10-23T07:24:17;98186.03;;;14.84;100.00
34482;BME280;20720;48.886;9.388;2022-10-23T07:26:42;98180.50;;;14.97;100.00
34482;BME280;20720;48.886;9.388;2022-10-23T07:29:09;98179.94;;;15.18;100.00
34482;BME280;20720;48.886;9.388;2022-10-23T07:31:34;98185.94;;;15.25;100.00
34482;BME280;20720;48.886;9.388;2022-10-23T07:34:00;98185.81;;;14.97;100.00
34482;BME280;20720;48.886;9.388;2022-10-23T07:36:25;98177.88;;;15.20;100.00
34482;BME280;20720;48.886;9.388;2022-10-23T07:38:50;98186.50;;;15.27;100.00
34482;BME280;20720;48.886;9.388;2022-10-23T07:41:16;98186.63;;;16.12;100.00
34482;BME280;20720;48.886;9.388;2022-10-23T07:43:41;98184.44;;;16.37;100.00
34482;BME280;20720;48.886;9.388;2022-10-23T07:46:07;98183.91;;;16.68;100.00
34482;BME280;20720;48.886;9.388;2022-10-23T07:48:34;98197.75;;;16.70;100.00
34482;BME280;20720;48.886;9.388;2022-10-23T07:51:01;98196.38;;;16.84;100.00
34482;BME280;20720;48.886;9.388;2022-10-23T07:53:28;98205.28;;;16.94;100.00
34482;BME280;20720;48.886;9.388;2022-10-23T07:55:54;98205.69;;;17.03;100.00
34482;BME280;20720;48.886;9.388;2022-10-23T07:58:20;98202.31;;;16.91;100.00
34482;BME280;20720;48.886;9.388;2022-10-23T08:00:59;98210.22;;;17.24;100.00
34482;BME280;20720;48.886;9.388;2022-10-23T08:03:30;98215.31;;;17.64;100.00
34482;BME280;20720;48.886;9.388;2022-10-23T08:05:55;98203.09;;;17.84;100.00
34482;BME280;20720;48.886;9.388;2022-10-23T08:08:22;98202.41;;;18.42;100.00
34482;BME280;20720;48.886;9.388;2022-10-23T08:10:49;98209.03;;;19.03;100.00
34482;BME280;20720;48.886;9.388;2022-10-23T08:13:16;98205.63;;;19.13;100.00
34482;BME280;20720;48.886;9.388;2022-10-23T08:15:44;98208.25;;;19.49;100.00
34482;BME280;20720;48.886;9.388;2022-10-23T08:18:10;98218.94;;;20.11;100.00
34482;BME280;20720;48.886;9.388;2022-10-23T08:20:42;98217.47;;;20.60;100.00
34482;BME280;20720;48.886;9.388;2022-10-23T08:23:08;98224.13;;;20.88;100.00
34482;BME280;20720;48.886;9.388;2022-10-23T08:25:36;98212.41;;;21.04;100.00
34482;BME280;20720;48.886;9.388;2022-10-23T08:28:01;98226.09;;;21.97;100.00
34482;BME280;20720;48.886;9.388;2022-10-23T08:30:27;98224.78;;;21.84;100.00
34482;BME280;20720;48.886;9.388;2022-10-23T08:32:52;98231.13;;;22.57;100.00
34482;BME280;20720;48.886;9.388;2022-10-23T08:35:17;98229.69;;;23.03;96.01
34482;BME280;20720;48.886;9.388;2022-10-23T08:37:43;98230.91;;;22.87;97.62
34482;BME280;20720;48.886;9.388;2022-10-23T08:40:22;98228.13;;;23.26;94.17
34482;BME280;20720;48.886;9.388;2022-10-23T08:45:42;98212.63;;;23.52;91.34
34482;BME280;20720;48.886;9.388;2022-10-23T08:48:15;98213.38;;;23.57;87.65
34482;BME280;20720;48.886;9.388;2022-10-23T08:50:49;98224.31;;;23.08;88.96
34482;BME280;20720;48.886;9.388;2022-10-23T08:53:33;98218.53;;;20.90;98.69
34482;BME280;20720;48.886;9.388;2022-10-23T08:56:05;98208.56;;;21.56;94.81
34482;BME280;20720;48.886;9.388;2022-10-23T08:58:39;98212.03;;;22.69;86.38
34482;BME280;20720;48.886;9.388;2022-10-23T09:01:22;98208.59;;;22.63;85.83
34482;BME280;20720;48.886;9.388;2022-10-23T09:03:50;98209.84;;;24.09;77.88
34482;BME280;20720;48.886;9.388;2022-10-23T09:06:27;98195.75;;;24.36;77.05
34482;BME280;20720;48.886;9.388;2022-10-23T09:09:13;98198.50;;;24.49;76.41
34482;BME280;20720;48.886;9.388;2022-10-23T09:11:48;98208.22;;;25.14;73.71
34482;BME280;20720;48.886;9.388;2022-10-23T09:17:32;98209.28;;;25.00;69.92
34482;BME280;20720;48.886;9.388;2022-10-23T09:20:00;98207.22;;;24.78;72.39
34482;BME280;20720;48.886;9.388;2022-10-23T09:22:29;98217.59;;;25.31;67.58
34482;BME280;20720;48.886;9.388;2022-10-23T09:24:54;98219.88;;;25.69;66.90
34482;BME280;20720;48.886;9.388;2022-10-23T09:27:20;98212.88;;;25.09;68.43
34482;BME280;20720;48.886;9.388;2022-10-23T09:29:53;98213.69;;;24.21;nan
34482;BME280;20720;48.886;9.388;2022-10-23T09:32:34;98221.25;;;25.21;67.81
34482;BME280;20720;48.886;9.388;2022-10-23T09:35:00;98216.75;;;25.76;65.58
34482;BME280;20720;48.886;9.388;2022-10-23T09:37:28;98220.50;;;25.21;66.37
34482;BME280;20720;48.886;9.388;2022-10-23T09:40:14;98231.19;;;24.75;66.26
34482;BME280;20720;48.886;9.388;2022-10-23T09:45:33;98213.75;;;25.91;62.39
34482;BME280;20720;48.886;9.388;2022-10-23T09:48:12;98210.34;;;26.26;62.04
34482;BME280;20720;48.886;9.388;2022-10-23T09:50:46;98198.88;;;26.56;62.01
34482;BME280;20720;48.886;9.388;2022-10-23T09:53:16;98198.63;;;25.41;65.28
34482;BME280;20720;48.886;9.388;2022-10-23T09:55:50;98190.06;;;26.64;62.32
34482;BME280;20720;48.886;9.388;2022-10-23T09:58:51;98189.31;;;26.50;61.63
34482;BME280;20720;48.886;9.388;2022-10-23T10:01:29;98192.47;;;26.66;59.89
34482;BME280;20720;48.886;9.388;2022-10-23T10:03:55;98182.09;;;26.59;59.15
34482;BME280;20720;48.886;9.388;2022-10-23T10:06:29;98172.63;;;26.26;59.96
34482;BME280;20720;48.886;9.388;2022-10-23T10:09:01;98170.47;;;26.72;60.24
34482;BME280;20720;48.886;9.388;2022-10-23T10:11:37;98166.16;;;26.93;60.19
34482;BME280;20720;48.886;9.388;2022-10-23T10:25:20;98181.56;;;27.24;59.53
34482;BME280;20720;48.886;9.388;2022-10-23T10:28:20;98184.63;;;25.93;63.62
34482;BME280;20720;48.886;9.388;2022-10-23T10:31:18;98180.88;;;26.08;65.07
34482;BME280;20720;48.886;9.388;2022-10-23T10:33:49;98166.94;;;26.50;62.18
34482;BME280;20720;48.886;9.388;2022-10-23T10:36:33;98176.97;;;27.55;59.63
34482;BME280;20720;48.886;9.388;2022-10-23T10:39:10;98168.81;;;27.85;56.92
34482;BME280;20720;48.886;9.388;2022-10-23T10:44:23;98162.06;;;29.37;53.53
34482;BME280;20720;48.886;9.388;2022-10-23T10:46:57;98154.75;;;28.31;54.85
34482;BME280;20720;48.886;9.388;2022-10-23T10:52:32;98149.34;;;28.31;56.23
34482;BME280;20720;48.886;9.388;2022-10-23T10:57:41;98123.69;;;29.64;53.19
34482;BME280;20720;48.886;9.388;2022-10-23T11:00:26;98115.19;;;29.16;52.74
34482;BME280;20720;48.886;9.388;2022-10-23T11:02:57;98115.53;;;28.97;52.29
34482;BME280;20720;48.886;9.388;2022-10-23T11:08:01;98130.94;;;26.68;59.26
34482;BME280;20720;48.886;9.388;2022-10-23T11:10:28;98135.97;;;26.61;61.85
34482;BME280;20720;48.886;9.388;2022-10-23T11:12:54;98140.34;;;26.70;61.93
34482;BME280;20720;48.886;9.388;2022-10-23T11:15:25;98133.56;;;26.59;63.88
34482;BME280;20720;48.886;9.388;2022-10-23T11:17:58;98121.06;;;27.16;62.32
34482;BME280;20720;48.886;9.388;2022-10-23T11:20:50;98130.19;;;26.54;66.85
34482;BME280;20720;48.886;9.388;2022-10-23T11:23:43;98120.34;;;26.71;67.65
34482;BME280;20720;48.886;9.388;2022-10-23T11:36:55;98094.53;;;26.79;68.50
34482;BME280;20720;48.886;9.388;2022-10-23T11:39:30;98089.63;;;27.59;67.00
34482;BME280;20720;48.886;9.388;2022-10-23T11:42:10;98083.28;;;27.64;63.70
34482;BME280;20720;48.886;9.388;2022-10-23T11:52:36;98066.25;;;27.38;64.61
34482;BME280;20720;48.886;9.388;2022-10-23T11:55:15;98062.47;;;25.12;73.64
34482;BME280;20720;48.886;9.388;2022-10-23T11:57:40;98056.34;;;24.20;77.59
34482;BME280;20720;48.886;9.388;2022-10-23T12:00:20;98055.72;;;25.01;77.82
34482;BME280;20720;48.886;9.388;2022-10-23T12:02:50;98051.75;;;25.40;75.84
34482;BME280;20720;48.886;9.388;2022-10-23T12:05:30;98061.44;;;25.63;74.00
34482;BME280;20720;48.886;9.388;2022-10-23T12:07:59;98053.16;;;26.08;71.06
34482;BME280;20720;48.886;9.388;2022-10-23T12:10:30;98046.44;;;26.42;70.76
34482;BME280;20720;48.886;9.388;2022-10-23T12:13:03;98047.91;;;26.26;73.95
34482;BME280;20720;48.886;9.388;2022-10-23T12:15:30;98051.16;;;26.36;73.20
34482;BME280;20720;48.886;9.388;2022-10-23T12:18:13;98045.75;;;26.14;73.21
34482;BME280;20720;48.886;9.388;2022-10-23T12:20:49;98043.28;;;26.70;71.77
34482;BME280;20720;48.886;9.388;2022-10-23T12:28:36;98030.25;;;26.72;69.75
34482;BME280;20720;48.886;9.388;2022-10-23T12:35:11;98030.28;;;26.50;71.93
34482;BME280;20720;48.886;9.388;2022-10-23T12:37:28;98023.56;;;26.39;72.46
34482;BME280;20720;48.886;9.388;2022-10-23T12:40:00;98023.81;;;26.29;72.20
34482;BME280;20720;48.886;9.388;2022-10-23T12:42:27;98016.31;;;26.70;72.58
34482;BME280;20720;48.886;9.388;2022-10-23T12:44:57;98020.50;;;26.93;70.29
34482;BME280;20720;48.886;9.388;2022-10-23T12:47:23;98015.78;;;27.64;67.97
34482;BME280;20720;48.886;9.388;2022-10-23T12:49:49;98009.41;;;27.60;67.28
34482;BME280;20720;48.886;9.388;2022-10-23T12:52:16;98001.50;;;28.06;64.84
34482;BME280;20720;48.886;9.388;2022-10-23T12:54:42;98001.38;;;28.66;62.93
34482;BME280;20720;48.886;9.388;2022-10-23T12:57:27;98002.84;;;28.46;63.10
34482;BME280;20720;48.886;9.388;2022-10-23T12:59:56;97996.69;;;28.20;64.56
34482;BME280;20720;48.886;9.388;2022-10-23T13:02:28;98005.44;;;28.80;62.40
34482;BME280;20720;48.886;9.388;2022-10-23T13:04:55;98001.50;;;29.86;59.04
34482;BME280;20720;48.886;9.388;2022-10-23T13:07:29;97990.00;;;31.91;53.41
34482;BME280;20720;48.886;9.388;2022-10-23T13:09:56;97990.25;;;32.57;48.78
34482;BME280;20720;48.886;9.388;2022-10-23T13:12:25;97988.50;;;32.36;49.56
34482;BME280;20720;48.886;9.388;2022-10-23T13:17:46;97975.31;;;32.51;48.70
34482;BME280;20720;48.886;9.388;2022-10-23T13:22:51;97968.84;;;33.37;45.71
34482;BME280;20720;48.886;9.388;2022-10-23T13:25:23;97960.66;;;31.84;47.06
34482;BME280;20720;48.886;9.388;2022-10-23T13:27:49;97953.03;;;29.64;51.40
34482;BME280;20720;48.886;9.388;2022-10-23T13:30:32;97941.63;;;31.84;48.04
34482;BME280;20720;48.886;9.388;2022-10-23T13:32:58;97938.19;;;33.24;50.34
34482;BME280;20720;48.886;9.388;2022-10-23T13:35:24;97945.28;;;34.01;49.84
34482;BME280;20720;48.886;9.388;2022-10-23T13:37:49;97953.81;;;33.62;50.40
34482;BME280;20720;48.886;9.388;2022-10-23T13:40:26;97953.59;;;34.08;50.74
34482;BME280;20720;48.886;9.388;2022-10-23T13:42:53;97957.75;;;34.22;48.39
34482;BME280;20720;48.886;9.388;2022-10-23T13:45:22;97954.72;;;32.22;47.31
34482;BME280;20720;48.886;9.388;2022-10-23T13:47:47;97944.56;;;30.88;50.60
34482;BME280;20720;48.886;9.388;2022-10-23T13:50:13;97952.44;;;29.79;52.74
34482;BME280;20720;48.886;9.388;2022-10-23T13:52:38;97953.03;;;28.56;56.33
34482;BME280;20720;48.886;9.388;2022-10-23T13:55:21;97952.25;;;27.58;60.06
34482;BME280;20720;48.886;9.388;2022-10-23T13:57:46;97947.31;;;27.60;63.40
34482;BME280;20720;48.886;9.388;2022-10-23T14:00:12;97947.63;;;27.58;64.28
34482;BME280;20720;48.886;9.388;2022-10-23T14:02:39;97945.09;;;27.45;66.50
34482;BME280;20720;48.886;9.388;2022-10-23T14:05:05;97941.81;;;26.91;68.87
34482;BME280;20720;48.886;9.388;2022-10-23T14:07:30;97950.34;;;26.76;71.29
34482;BME280;20720;48.886;9.388;2022-10-23T14:09:55;97946.41;;;26.43;76.34
34482;BME280;20720;48.886;9.388;2022-10-23T14:12:21;97944.28;;;26.32;85.60
34482;BME280;20720;48.886;9.388;2022-10-23T14:14:50;97939.69;;;26.32;89.08
34482;BME280;20720;48.886;9.388;2022-10-23T14:17:16;97942.78;;;26.17;93.24
34482;BME280;20720;48.886;9.388;2022-10-23T14:19:41;97943.38;;;25.92;95.94